Scroll down
FLIGHT INFORMATION
Southwest Airlines

SWA727

At Arrival Gate

PHNL
 PHTO
DATE: 2021-02-04
GATE: 5
GATE DEPARTURE: 19:20
TAKEOFF: 19:32
DATE: 2021-02-04
GATE: 8
LANDING: 20:13
GATE ARRIVAL: 20:18
FLIGHT DATA
Crew: 
Speed: 
419 kts
Altitude: 
28,999 ft
Stage Length: 
187.9 nm
Block Time: 
0.9 hrs
Flight Time: 
0.7 hrs
Fuel Used: 
4,919 lb
Cleared Route: PHNL PULPS BONUS DEREC PUMIC PARIS ARBOR ITO PHTO
TRACK DATA
50,000 ft 1,000 kts
AIRCRAFT INFO AND CUMULATIVE STATS
Aircraft Type: 
B738SSW
Registration: 
SELCAL: 
DSFJ
MSN/LN: 
38110 / 4059
Operator: 
Total Flights: 
15
Total Block Time: 
32.5 hrs
Total Flight Time: 
30.2 hrs
Total Fuel Time: 
182,349 lb
DATALINK LOG | Newest first | Current as of: 2021-07-23 20:18:11
LABEL SEQUENCE CONTENT Dn/Up
5Z22514 FEB 21 20:21:50z / FLT DECK GOOD / ACF POS GOOD / GRND SERVICES GOOD / MAINT GOOD▼ Dn
QD184820:18 9.5▼ Dn
QC144420:13▼ Dn
2U0527PHTO 041919Z 36009KT 10SM FEW016 SCT024 BKN048 22/18 A2988 RMK AO2 RAE09 P0000 T02220183▲ Up
2S0535PHTO▼ Dn
GA4628GATE 8▲ Up
GR4617PHTO 20:12 HI-VAL NO DIPL/VIP NO▼ Dn
DM793821 ATIS PHTO A▼ Dn
2U3627PHTO 041919Z 36009KT 10SM FEW016 SCT024 BKN048 22/18 A2988 RMK AO2 RAE09 P0000 T02220183▲ Up
2S3720PHTO▼ Dn
QB321519:32▼ Dn
QA210419:20 14.5▼ Dn
5Z15594 FEB 21 19:15:16z / FLT DECK GOOD / ACF POS GOOD / GRND SERVICES GOOD / MAINT GOOD▼ Dn
2U5953PHNL 041753Z 36003KT 10SM FEW025 SCT050 18/16 A2992 RMK AO2 RAB1656E05 SLP130 P0000 60000 T01780156 10189 20161 53019 $▲ Up
2S5943PHNL▼ Dn
A35649CLEARED TO PHTO VIA MKK4 PULPS V21 PUMIC V15 ITO. SQUAWK 5616.▲ Up
B35640PHNL PHTO SWA727 N8602F ▼ Dn
UM2125448PHNL ATIS - HNL ARR/DEP INFO P 0553Z. 03005KT 10SM FEW024 FEW045 22/19 A2998 (TWO NINER NINER EIGHT) RMK VCSH NE. LNDG/DEPG RWYS 4/8 EXP ILS OR VISUAL APCH.. LAHSO IN EFFECT. ADV APCH 118.3/119.1 IF NO LAHSO. RWY 8R CLSD. TWY G CLSD BTN TWY A AND INTERISLAND RAMP. TWY B CLSD BTN B 1 AND TWY D. TWY ROMEO ALPHA BETWEEN DEPARTURE END RWY 8R AND TWY ROMEO TANGO CLSD. TWY ROMEO BRAVO BETWEEN APPROACH END RWY 8R AND TWY ROMEO ALPHA CLSD. TWY ROMEO CHARLIE BETWEEN RWY 8R AND TWY ROMEO ALPHA CLSD. TWY ROMEO GOLF BETWEEN RWY 8R AND TWY ROMEO ALPHA CLSD. TWY ROMEO HOTEL BETWEEN RWY 8R AND TWY ROMEO ALPHA CLSD. TWY ROMEO MIKE BETWEEN RWY 8R AND TWY ROMEO ALPHA CLSD. RWY 8R REILS OTS, RWY 8R VASI OTS, CKH TACAN OTS. READ BACK ALL CONTROL INSTRUCTIONS.. INCR BIRD STRIKE HAZ ALL RWYS. AIRMET SIERRA VALID. MORE INFO AT HNL AFSS. ...ADVS YOU HAVE INFO P.▲ Up
DM795438 ATIS PHNL D▼ Dn
Q04731[LINK ACK]▲ Up
Q04731[LINK TEST]▼ Dn


AIRCRAFT HISTORY
FLIGHT DATE FLIGHT NO. ORIGIN DESTINATION CLEARED ROUTE BLOCK TIME FLIGHT TIME FUEL USED PILOT
2021-02-04SWA727PHNL PHTO PHNL PULPS BONUS DEREC PUMIC PARIS ARBOR ITO PHTO0.9 hrs0.7 hrs4,919 lbAnton Vind
2021-02-02SWA752PHKO PHNL PHKO TYPHO HOKLA PHNL0.8 hrs0.6 hrs4,155 lbAnton Vind
2021-02-02SWA751PHNL PHKO PHNL LNY PHKO0.7 hrs0.5 hrs3,858 lbAnton Vind
2021-02-01SWA586PHOG PHNL PHOG LNY PHNL0.6 hrs0.4 hrs3,428 lbAnton Vind
2021-02-01SWA586PHNL PHOG PHNL LNY PHOG0.6 hrs0.4 hrs3,163 lbAnton Vind
2021-01-28SWA1375KSAN PHNL KSAN DINTY DUETS DADIE DIALO DUSAC DRAYK DENNS PHNL5.7 hrs5.6 hrs31,409 lbAnton Vind
2021-01-25SWA4536KPHX KSAN KPHX MOHAK HOGGZ KSAN1 hrs0.9 hrs5,868 lbAnton Vind
2021-01-20SWA1265KLAX KPHX KLAX CNERY BLH KPHX1.1 hrs1 hrs6,863 lbAlex K.
2021-01-12SWA2510KMDW KLAX KMDW PEKUE OBENE MONNY IANNA FOD KD69A DBL CHESZ PROMT VERKN GARDD NOOTN LAKRR ZZYZX HAKMN KLAX3.8 hrs3.7 hrs19,504 lbAlex K.
2021-01-12SWA185KCLE KMDW KCLE BAGEL KMDW1 hrs0.9 hrs6,152 lbAlex K.
2021-01-12SWA185KPHX KCLE KPHX MAXXO IRW OKM RZC MWA PXV DRUGA KCLE3.9 hrs3.7 hrs20,598 lbAlex K.
2021-01-08SWA4980KMDW KPHX KMDW PEKUE PIPPN ROTTN PWE HLC ALS GUP KPHX3.2 hrs3.1 hrs19,230 lbAlex K.
2021-01-07SWA3167KPHX KMDW KPHX ABQ FTI KK42Y MCI IRK KMDW3.2 hrs3 hrs16,105 lbAlex K.
2020-12-31SWA3611KMDW KPHX KMDW PEKUE PIPPN ELYNA BACNN STJ SLN GCK CIM ZUN KPHX3.2 hrs3.1 hrs20,505 lbAlex K.
2020-12-31SWA3262KFLL KMDW KFLL THNDR KPASA JINOS BRUTS JAMIZ JOHNN ATL KAILL IIU OKK KMDW2.8 hrs2.7 hrs16,593 lbAlex K.